sensor_id;sensor_type;location;lat;lon;timestamp;P1;durP1;ratioP1;P2;durP2;ratioP2
14191;SDS011;7177;48.572;7.838;2023-09-30T00:00:02;3.77;;;2.40;;
14191;SDS011;7177;48.572;7.838;2023-09-30T00:02:33;5.70;;;2.63;;
14191;SDS011;7177;48.572;7.838;2023-09-30T00:04:58;3.83;;;2.60;;
14191;SDS011;7177;48.572;7.838;2023-09-30T00:07:24;5.00;;;2.10;;
14191;SDS011;7177;48.572;7.838;2023-09-30T00:09:49;4.10;;;2.33;;
14191;SDS011;7177;48.572;7.838;2023-09-30T00:12:16;4.27;;;2.23;;
14191;SDS011;7177;48.572;7.838;2023-09-30T00:14:42;3.43;;;2.00;;
14191;SDS011;7177;48.572;7.838;2023-09-30T00:17:08;5.80;;;2.63;;
14191;SDS011;7177;48.572;7.838;2023-09-30T00:19:33;4.20;;;2.20;;
14191;SDS011;7177;48.572;7.838;2023-09-30T00:21:59;4.63;;;2.40;;
14191;SDS011;7177;48.572;7.838;2023-09-30T00:24:25;3.10;;;2.20;;
14191;SDS011;7177;48.572;7.838;2023-09-30T00:26:51;3.97;;;2.30;;
14191;SDS011;7177;48.572;7.838;2023-09-30T00:29:16;4.00;;;2.13;;
14191;SDS011;7177;48.572;7.838;2023-09-30T00:31:42;3.87;;;2.60;;
14191;SDS011;7177;48.572;7.838;2023-09-30T00:34:09;6.27;;;2.70;;
14191;SDS011;7177;48.572;7.838;2023-09-30T00:36:34;3.53;;;2.30;;
14191;SDS011;7177;48.572;7.838;2023-09-30T00:39:00;3.83;;;2.67;;
14191;SDS011;7177;48.572;7.838;2023-09-30T00:41:25;2.80;;;2.07;;
14191;SDS011;7177;48.572;7.838;2023-09-30T00:43:51;5.43;;;2.83;;
14191;SDS011;7177;48.572;7.838;2023-09-30T00:48:48;6.27;;;2.70;;
14191;SDS011;7177;48.572;7.838;2023-09-30T00:51:14;4.93;;;2.70;;
14191;SDS011;7177;48.572;7.838;2023-09-30T00:53:40;5.87;;;2.97;;
14191;SDS011;7177;48.572;7.838;2023-09-30T00:56:06;4.63;;;2.70;;
14191;SDS011;7177;48.572;7.838;2023-09-30T00:58:32;3.63;;;2.53;;
14191;SDS011;7177;48.572;7.838;2023-09-30T01:01:01;6.03;;;3.10;;
14191;SDS011;7177;48.572;7.838;2023-09-30T01:03:26;4.80;;;2.63;;
14191;SDS011;7177;48.572;7.838;2023-09-30T01:05:52;8.20;;;3.33;;
14191;SDS011;7177;48.572;7.838;2023-09-30T01:08:19;6.63;;;3.13;;
14191;SDS011;7177;48.572;7.838;2023-09-30T01:10:45;5.77;;;2.90;;
14191;SDS011;7177;48.572;7.838;2023-09-30T01:13:11;8.77;;;3.30;;
14191;SDS011;7177;48.572;7.838;2023-09-30T01:15:36;7.50;;;3.37;;
14191;SDS011;7177;48.572;7.838;2023-09-30T01:18:02;6.90;;;2.77;;
14191;SDS011;7177;48.572;7.838;2023-09-30T01:20:28;5.93;;;2.77;;
14191;SDS011;7177;48.572;7.838;2023-09-30T01:22:54;9.93;;;3.30;;
14191;SDS011;7177;48.572;7.838;2023-09-30T01:25:22;4.77;;;2.90;;
14191;SDS011;7177;48.572;7.838;2023-09-30T01:27:47;9.53;;;3.67;;
14191;SDS011;7177;48.572;7.838;2023-09-30T01:30:13;7.60;;;3.40;;
14191;SDS011;7177;48.572;7.838;2023-09-30T01:32:39;6.40;;;3.60;;
14191;SDS011;7177;48.572;7.838;2023-09-30T01:35:05;5.97;;;2.97;;
14191;SDS011;7177;48.572;7.838;2023-09-30T01:37:31;5.43;;;3.03;;
14191;SDS011;7177;48.572;7.838;2023-09-30T01:39:57;5.77;;;2.90;;
14191;SDS011;7177;48.572;7.838;2023-09-30T01:42:22;8.20;;;3.63;;
14191;SDS011;7177;48.572;7.838;2023-09-30T01:44:48;7.73;;;3.40;;
14191;SDS011;7177;48.572;7.838;2023-09-30T01:47:13;5.70;;;3.10;;
14191;SDS011;7177;48.572;7.838;2023-09-30T01:49:39;6.73;;;3.13;;
14191;SDS011;7177;48.572;7.838;2023-09-30T01:52:04;5.23;;;2.90;;
14191;SDS011;7177;48.572;7.838;2023-09-30T01:54:30;5.10;;;2.70;;
14191;SDS011;7177;48.572;7.838;2023-09-30T01:56:55;5.10;;;3.17;;
14191;SDS011;7177;48.572;7.838;2023-09-30T01:59:21;4.00;;;2.63;;
14191;SDS011;7177;48.572;7.838;2023-09-30T02:01:47;5.60;;;3.20;;
14191;SDS011;7177;48.572;7.838;2023-09-30T02:04:14;7.00;;;3.60;;
14191;SDS011;7177;48.572;7.838;2023-09-30T02:06:42;6.80;;;3.80;;
14191;SDS011;7177;48.572;7.838;2023-09-30T02:09:08;6.33;;;3.33;;
14191;SDS011;7177;48.572;7.838;2023-09-30T02:11:36;5.27;;;3.33;;
14191;SDS011;7177;48.572;7.838;2023-09-30T02:14:03;6.17;;;3.07;;
14191;SDS011;7177;48.572;7.838;2023-09-30T02:16:30;6.30;;;3.33;;
14191;SDS011;7177;48.572;7.838;2023-09-30T02:18:56;5.33;;;2.70;;
14191;SDS011;7177;48.572;7.838;2023-09-30T02:21:22;5.03;;;2.97;;
14191;SDS011;7177;48.572;7.838;2023-09-30T02:23:47;5.83;;;3.10;;
14191;SDS011;7177;48.572;7.838;2023-09-30T02:26:16;5.47;;;3.20;;
14191;SDS011;7177;48.572;7.838;2023-09-30T02:28:42;6.90;;;4.07;;
14191;SDS011;7177;48.572;7.838;2023-09-30T02:31:08;5.87;;;3.40;;
14191;SDS011;7177;48.572;7.838;2023-09-30T02:33:34;7.27;;;3.93;;
14191;SDS011;7177;48.572;7.838;2023-09-30T02:36:03;6.17;;;3.70;;
14191;SDS011;7177;48.572;7.838;2023-09-30T02:38:32;6.60;;;3.70;;
14191;SDS011;7177;48.572;7.838;2023-09-30T02:40:57;4.37;;;3.13;;
14191;SDS011;7177;48.572;7.838;2023-09-30T02:43:23;6.03;;;3.00;;
14191;SDS011;7177;48.572;7.838;2023-09-30T02:45:49;6.23;;;2.73;;
14191;SDS011;7177;48.572;7.838;2023-09-30T02:48:15;4.27;;;2.80;;
14191;SDS011;7177;48.572;7.838;2023-09-30T02:50:43;5.87;;;2.80;;
14191;SDS011;7177;48.572;7.838;2023-09-30T02:53:11;7.00;;;4.10;;
14191;SDS011;7177;48.572;7.838;2023-09-30T02:55:41;8.80;;;4.63;;
14191;SDS011;7177;48.572;7.838;2023-09-30T02:58:07;9.10;;;4.27;;
14191;SDS011;7177;48.572;7.838;2023-09-30T03:00:33;10.13;;;4.53;;
14191;SDS011;7177;48.572;7.838;2023-09-30T03:03:00;7.53;;;3.83;;
14191;SDS011;7177;48.572;7.838;2023-09-30T03:05:29;6.83;;;3.50;;
14191;SDS011;7177;48.572;7.838;2023-09-30T03:07:58;9.10;;;4.20;;
14191;SDS011;7177;48.572;7.838;2023-09-30T03:10:29;7.10;;;4.00;;
14191;SDS011;7177;48.572;7.838;2023-09-30T03:12:58;6.23;;;3.67;;
14191;SDS011;7177;48.572;7.838;2023-09-30T03:15:26;5.50;;;3.50;;
14191;SDS011;7177;48.572;7.838;2023-09-30T03:17:53;6.57;;;3.10;;
14191;SDS011;7177;48.572;7.838;2023-09-30T03:20:20;4.47;;;3.03;;
14191;SDS011;7177;48.572;7.838;2023-09-30T03:22:46;6.40;;;3.67;;
14191;SDS011;7177;48.572;7.838;2023-09-30T03:25:13;6.67;;;3.80;;
14191;SDS011;7177;48.572;7.838;2023-09-30T03:27:41;8.90;;;3.93;;
14191;SDS011;7177;48.572;7.838;2023-09-30T03:30:07;6.73;;;3.50;;
14191;SDS011;7177;48.572;7.838;2023-09-30T03:32:33;5.67;;;3.30;;
14191;SDS011;7177;48.572;7.838;2023-09-30T03:35:03;6.57;;;3.57;;
14191;SDS011;7177;48.572;7.838;2023-09-30T03:37:45;5.13;;;2.97;;
14191;SDS011;7177;48.572;7.838;2023-09-30T03:40:12;4.70;;;3.20;;
14191;SDS011;7177;48.572;7.838;2023-09-30T03:42:44;3.83;;;2.57;;
14191;SDS011;7177;48.572;7.838;2023-09-30T03:45:10;7.23;;;3.33;;
14191;SDS011;7177;48.572;7.838;2023-09-30T03:47:39;4.90;;;3.00;;
14191;SDS011;7177;48.572;7.838;2023-09-30T03:50:05;7.50;;;2.90;;
14191;SDS011;7177;48.572;7.838;2023-09-30T03:52:40;5.23;;;3.07;;
14191;SDS011;7177;48.572;7.838;2023-09-30T03:55:09;5.13;;;3.33;;
14191;SDS011;7177;48.572;7.838;2023-09-30T03:57:46;5.27;;;2.97;;
14191;SDS011;7177;48.572;7.838;2023-09-30T04:00:13;7.63;;;3.90;;
14191;SDS011;7177;48.572;7.838;2023-09-30T04:02:41;6.70;;;3.37;;
14191;SDS011;7177;48.572;7.838;2023-09-30T04:05:07;5.20;;;3.10;;
14191;SDS011;7177;48.572;7.838;2023-09-30T04:07:36;5.93;;;3.23;;
14191;SDS011;7177;48.572;7.838;2023-09-30T04:10:02;4.27;;;2.97;;
14191;SDS011;7177;48.572;7.838;2023-09-30T04:12:29;8.03;;;3.43;;
14191;SDS011;7177;48.572;7.838;2023-09-30T04:14:54;4.80;;;3.40;;
14191;SDS011;7177;48.572;7.838;2023-09-30T04:17:20;6.57;;;3.57;;
14191;SDS011;7177;48.572;7.838;2023-09-30T04:19:48;5.20;;;3.33;;
14191;SDS011;7177;48.572;7.838;2023-09-30T04:22:16;7.00;;;3.60;;
14191;SDS011;7177;48.572;7.838;2023-09-30T04:24:42;6.87;;;3.20;;
14191;SDS011;7177;48.572;7.838;2023-09-30T04:27:08;5.10;;;3.10;;
14191;SDS011;7177;48.572;7.838;2023-09-30T04:29:33;10.93;;;3.70;;
14191;SDS011;7177;48.572;7.838;2023-09-30T04:31:59;5.40;;;3.47;;
14191;SDS011;7177;48.572;7.838;2023-09-30T04:34:25;7.50;;;3.80;;
14191;SDS011;7177;48.572;7.838;2023-09-30T04:36:52;5.83;;;3.53;;
14191;SDS011;7177;48.572;7.838;2023-09-30T04:39:18;6.23;;;3.50;;
14191;SDS011;7177;48.572;7.838;2023-09-30T04:41:43;5.63;;;3.40;;
14191;SDS011;7177;48.572;7.838;2023-09-30T04:44:09;4.93;;;3.50;;
14191;SDS011;7177;48.572;7.838;2023-09-30T04:46:35;6.20;;;3.20;;
14191;SDS011;7177;48.572;7.838;2023-09-30T04:49:03;8.17;;;3.80;;
14191;SDS011;7177;48.572;7.838;2023-09-30T04:51:29;4.70;;;3.27;;
14191;SDS011;7177;48.572;7.838;2023-09-30T04:53:58;7.57;;;3.90;;
14191;SDS011;7177;48.572;7.838;2023-09-30T04:56:24;8.10;;;3.43;;
14191;SDS011;7177;48.572;7.838;2023-09-30T04:58:50;9.07;;;4.67;;
14191;SDS011;7177;48.572;7.838;2023-09-30T05:01:15;8.30;;;4.00;;
14191;SDS011;7177;48.572;7.838;2023-09-30T05:03:43;7.93;;;3.63;;
14191;SDS011;7177;48.572;7.838;2023-09-30T05:06:14;6.03;;;3.27;;
14191;SDS011;7177;48.572;7.838;2023-09-30T05:08:40;3.07;;;2.50;;
14191;SDS011;7177;48.572;7.838;2023-09-30T05:11:06;5.53;;;3.67;;
14191;SDS011;7177;48.572;7.838;2023-09-30T05:13:32;5.93;;;3.37;;
14191;SDS011;7177;48.572;7.838;2023-09-30T05:15:59;6.13;;;3.00;;
14191;SDS011;7177;48.572;7.838;2023-09-30T05:18:24;6.73;;;3.93;;
14191;SDS011;7177;48.572;7.838;2023-09-30T05:20:50;7.30;;;4.00;;
14191;SDS011;7177;48.572;7.838;2023-09-30T05:23:16;6.53;;;3.80;;
14191;SDS011;7177;48.572;7.838;2023-09-30T05:25:43;6.97;;;3.80;;
14191;SDS011;7177;48.572;7.838;2023-09-30T05:28:09;7.93;;;4.10;;
14191;SDS011;7177;48.572;7.838;2023-09-30T05:30:36;6.13;;;4.00;;
14191;SDS011;7177;48.572;7.838;2023-09-30T05:33:02;7.17;;;4.23;;
14191;SDS011;7177;48.572;7.838;2023-09-30T05:35:28;6.73;;;3.67;;
14191;SDS011;7177;48.572;7.838;2023-09-30T05:37:54;6.10;;;3.80;;
14191;SDS011;7177;48.572;7.838;2023-09-30T05:40:21;4.83;;;3.10;;
14191;SDS011;7177;48.572;7.838;2023-09-30T05:42:55;4.70;;;3.33;;
14191;SDS011;7177;48.572;7.838;2023-09-30T05:45:28;7.07;;;3.90;;
14191;SDS011;7177;48.572;7.838;2023-09-30T05:47:59;6.83;;;3.87;;
14191;SDS011;7177;48.572;7.838;2023-09-30T05:50:29;4.83;;;3.90;;
14191;SDS011;7177;48.572;7.838;2023-09-30T05:52:56;5.40;;;4.07;;
14191;SDS011;7177;48.572;7.838;2023-09-30T05:55:22;7.67;;;4.43;;
14191;SDS011;7177;48.572;7.838;2023-09-30T05:57:50;7.50;;;4.10;;
14191;SDS011;7177;48.572;7.838;2023-09-30T06:00:17;5.63;;;3.90;;
14191;SDS011;7177;48.572;7.838;2023-09-30T06:02:54;6.60;;;3.53;;
14191;SDS011;7177;48.572;7.838;2023-09-30T06:05:20;4.50;;;3.20;;
14191;SDS011;7177;48.572;7.838;2023-09-30T06:07:47;4.60;;;3.00;;
14191;SDS011;7177;48.572;7.838;2023-09-30T06:10:13;4.80;;;2.90;;
14191;SDS011;7177;48.572;7.838;2023-09-30T06:12:43;5.00;;;3.53;;
14191;SDS011;7177;48.572;7.838;2023-09-30T06:15:11;5.30;;;3.30;;
14191;SDS011;7177;48.572;7.838;2023-09-30T06:17:38;3.63;;;3.17;;
14191;SDS011;7177;48.572;7.838;2023-09-30T06:20:05;11.47;;;4.90;;
14191;SDS011;7177;48.572;7.838;2023-09-30T06:22:40;9.63;;;5.30;;
14191;SDS011;7177;48.572;7.838;2023-09-30T06:25:14;6.03;;;4.10;;
14191;SDS011;7177;48.572;7.838;2023-09-30T06:27:41;6.83;;;4.40;;
14191;SDS011;7177;48.572;7.838;2023-09-30T06:30:11;6.17;;;3.87;;
14191;SDS011;7177;48.572;7.838;2023-09-30T06:32:37;9.60;;;4.87;;
14191;SDS011;7177;48.572;7.838;2023-09-30T06:35:05;9.73;;;5.80;;
14191;SDS011;7177;48.572;7.838;2023-09-30T06:37:31;7.80;;;4.90;;
14191;SDS011;7177;48.572;7.838;2023-09-30T06:39:57;7.63;;;5.00;;
14191;SDS011;7177;48.572;7.838;2023-09-30T06:42:24;10.27;;;6.03;;
14191;SDS011;7177;48.572;7.838;2023-09-30T06:44:50;8.93;;;5.53;;
14191;SDS011;7177;48.572;7.838;2023-09-30T06:47:15;6.43;;;4.87;;
14191;SDS011;7177;48.572;7.838;2023-09-30T06:49:41;11.90;;;5.70;;
14191;SDS011;7177;48.572;7.838;2023-09-30T06:52:07;7.67;;;4.80;;
14191;SDS011;7177;48.572;7.838;2023-09-30T06:54:32;8.03;;;5.43;;
14191;SDS011;7177;48.572;7.838;2023-09-30T06:56:58;6.90;;;4.67;;
14191;SDS011;7177;48.572;7.838;2023-09-30T06:59:23;7.60;;;4.97;;
14191;SDS011;7177;48.572;7.838;2023-09-30T07:01:50;8.50;;;5.30;;
14191;SDS011;7177;48.572;7.838;2023-09-30T07:04:16;7.10;;;4.57;;
14191;SDS011;7177;48.572;7.838;2023-09-30T07:06:41;8.97;;;5.00;;
14191;SDS011;7177;48.572;7.838;2023-09-30T07:09:07;6.30;;;4.60;;
14191;SDS011;7177;48.572;7.838;2023-09-30T07:11:34;6.87;;;4.57;;
14191;SDS011;7177;48.572;7.838;2023-09-30T07:13:59;8.37;;;5.10;;
14191;SDS011;7177;48.572;7.838;2023-09-30T07:16:26;7.70;;;4.47;;
14191;SDS011;7177;48.572;7.838;2023-09-30T07:18:51;7.23;;;4.93;;
14191;SDS011;7177;48.572;7.838;2023-09-30T07:21:17;11.67;;;5.57;;
14191;SDS011;7177;48.572;7.838;2023-09-30T07:23:43;5.80;;;4.40;;
14191;SDS011;7177;48.572;7.838;2023-09-30T07:26:08;7.40;;;3.90;;
14191;SDS011;7177;48.572;7.838;2023-09-30T07:28:34;6.50;;;4.17;;
14191;SDS011;7177;48.572;7.838;2023-09-30T07:30:59;9.37;;;4.03;;
14191;SDS011;7177;48.572;7.838;2023-09-30T07:33:25;6.67;;;4.87;;
14191;SDS011;7177;48.572;7.838;2023-09-30T07:35:51;9.73;;;5.57;;
14191;SDS011;7177;48.572;7.838;2023-09-30T07:38:17;6.60;;;4.60;;
14191;SDS011;7177;48.572;7.838;2023-09-30T07:40:42;7.77;;;4.20;;
14191;SDS011;7177;48.572;7.838;2023-09-30T07:43:08;9.90;;;4.60;;
14191;SDS011;7177;48.572;7.838;2023-09-30T07:45:35;7.67;;;4.00;;
14191;SDS011;7177;48.572;7.838;2023-09-30T07:48:01;8.03;;;3.90;;
14191;SDS011;7177;48.572;7.838;2023-09-30T07:50:30;7.83;;;4.27;;
14191;SDS011;7177;48.572;7.838;2023-09-30T07:52:56;7.03;;;4.43;;
14191;SDS011;7177;48.572;7.838;2023-09-30T07:55:21;9.07;;;4.20;;
14191;SDS011;7177;48.572;7.838;2023-09-30T07:57:47;5.57;;;4.03;;
14191;SDS011;7177;48.572;7.838;2023-09-30T08:00:13;7.13;;;3.80;;
14191;SDS011;7177;48.572;7.838;2023-09-30T08:02:42;6.37;;;3.70;;
14191;SDS011;7177;48.572;7.838;2023-09-30T08:05:08;5.70;;;4.03;;
14191;SDS011;7177;48.572;7.838;2023-09-30T08:07:35;6.77;;;3.90;;
14191;SDS011;7177;48.572;7.838;2023-09-30T08:10:02;13.37;;;9.70;;
14191;SDS011;7177;48.572;7.838;2023-09-30T08:12:32;10.20;;;7.37;;
14191;SDS011;7177;48.572;7.838;2023-09-30T08:14:57;7.23;;;4.20;;
14191;SDS011;7177;48.572;7.838;2023-09-30T08:17:23;8.80;;;5.33;;
14191;SDS011;7177;48.572;7.838;2023-09-30T08:19:48;6.83;;;4.20;;
14191;SDS011;7177;48.572;7.838;2023-09-30T08:22:14;6.20;;;4.33;;
14191;SDS011;7177;48.572;7.838;2023-09-30T08:24:40;8.97;;;3.60;;
14191;SDS011;7177;48.572;7.838;2023-09-30T08:27:05;9.13;;;4.50;;
14191;SDS011;7177;48.572;7.838;2023-09-30T08:29:34;7.57;;;4.20;;
14191;SDS011;7177;48.572;7.838;2023-09-30T08:32:01;6.77;;;4.20;;
14191;SDS011;7177;48.572;7.838;2023-09-30T08:34:28;5.93;;;3.93;;
14191;SDS011;7177;48.572;7.838;2023-09-30T08:36:53;7.13;;;3.87;;
14191;SDS011;7177;48.572;7.838;2023-09-30T08:39:19;6.70;;;3.87;;
14191;SDS011;7177;48.572;7.838;2023-09-30T08:41:45;5.97;;;3.60;;
14191;SDS011;7177;48.572;7.838;2023-09-30T08:44:11;8.83;;;4.30;;
14191;SDS011;7177;48.572;7.838;2023-09-30T08:46:37;8.33;;;4.93;;
14191;SDS011;7177;48.572;7.838;2023-09-30T08:49:04;7.57;;;4.07;;
14191;SDS011;7177;48.572;7.838;2023-09-30T08:51:34;11.07;;;5.63;;
14191;SDS011;7177;48.572;7.838;2023-09-30T08:54:01;6.57;;;3.90;;
14191;SDS011;7177;48.572;7.838;2023-09-30T08:56:29;6.23;;;3.77;;
14191;SDS011;7177;48.572;7.838;2023-09-30T08:58:58;9.90;;;4.20;;
14191;SDS011;7177;48.572;7.838;2023-09-30T09:01:25;10.77;;;4.10;;
14191;SDS011;7177;48.572;7.838;2023-09-30T09:03:52;9.23;;;3.87;;
14191;SDS011;7177;48.572;7.838;2023-09-30T09:06:21;6.00;;;3.90;;
14191;SDS011;7177;48.572;7.838;2023-09-30T09:08:48;8.70;;;3.93;;
14191;SDS011;7177;48.572;7.838;2023-09-30T09:11:14;4.60;;;3.50;;
14191;SDS011;7177;48.572;7.838;2023-09-30T09:13:50;5.13;;;3.60;;
14191;SDS011;7177;48.572;7.838;2023-09-30T09:16:20;6.63;;;3.63;;
14191;SDS011;7177;48.572;7.838;2023-09-30T09:18:47;6.40;;;3.60;;
14191;SDS011;7177;48.572;7.838;2023-09-30T09:21:15;8.87;;;3.97;;
14191;SDS011;7177;48.572;7.838;2023-09-30T09:23:46;5.70;;;3.63;;
14191;SDS011;7177;48.572;7.838;2023-09-30T09:26:22;6.40;;;3.60;;
14191;SDS011;7177;48.572;7.838;2023-09-30T09:28:50;10.63;;;3.90;;
14191;SDS011;7177;48.572;7.838;2023-09-30T09:31:28;7.63;;;3.07;;
14191;SDS011;7177;48.572;7.838;2023-09-30T09:33:55;5.63;;;3.40;;
14191;SDS011;7177;48.572;7.838;2023-09-30T09:36:22;5.53;;;3.13;;
14191;SDS011;7177;48.572;7.838;2023-09-30T09:39:11;5.37;;;3.17;;
14191;SDS011;7177;48.572;7.838;2023-09-30T09:41:54;6.73;;;2.93;;
14191;SDS011;7177;48.572;7.838;2023-09-30T09:44:23;6.33;;;3.33;;
14191;SDS011;7177;48.572;7.838;2023-09-30T09:46:50;7.50;;;3.23;;
14191;SDS011;7177;48.572;7.838;2023-09-30T09:49:16;5.47;;;3.00;;
14191;SDS011;7177;48.572;7.838;2023-09-30T09:51:43;7.43;;;2.53;;
14191;SDS011;7177;48.572;7.838;2023-09-30T09:54:10;9.33;;;2.80;;
14191;SDS011;7177;48.572;7.838;2023-09-30T09:56:37;5.27;;;2.77;;
14191;SDS011;7177;48.572;7.838;2023-09-30T09:59:04;4.53;;;2.67;;
14191;SDS011;7177;48.572;7.838;2023-09-30T10:01:31;5.57;;;3.47;;
14191;SDS011;7177;48.572;7.838;2023-09-30T10:03:59;10.73;;;5.80;;
14191;SDS011;7177;48.572;7.838;2023-09-30T10:06:25;5.00;;;3.23;;
14191;SDS011;7177;48.572;7.838;2023-09-30T10:08:51;4.63;;;3.00;;
14191;SDS011;7177;48.572;7.838;2023-09-30T10:11:19;4.00;;;2.57;;
14191;SDS011;7177;48.572;7.838;2023-09-30T10:13:55;6.83;;;3.30;;
14191;SDS011;7177;48.572;7.838;2023-09-30T10:21:38;5.63;;;3.10;;
14191;SDS011;7177;48.572;7.838;2023-09-30T10:35:19;4.50;;;2.80;;
14191;SDS011;7177;48.572;7.838;2023-09-30T10:37:46;9.17;;;2.70;;
14191;SDS011;7177;48.572;7.838;2023-09-30T10:40:28;5.23;;;3.10;;
14191;SDS011;7177;48.572;7.838;2023-09-30T10:42:56;4.20;;;2.53;;
14191;SDS011;7177;48.572;7.838;2023-09-30T10:51:17;5.13;;;2.73;;
14191;SDS011;7177;48.572;7.838;2023-09-30T10:53:53;4.63;;;2.63;;
14191;SDS011;7177;48.572;7.838;2023-09-30T10:56:26;5.83;;;2.63;;
14191;SDS011;7177;48.572;7.838;2023-09-30T10:58:57;7.87;;;3.20;;
14191;SDS011;7177;48.572;7.838;2023-09-30T11:01:24;7.53;;;2.80;;
14191;SDS011;7177;48.572;7.838;2023-09-30T11:03:50;11.50;;;3.10;;
14191;SDS011;7177;48.572;7.838;2023-09-30T11:06:24;10.17;;;3.17;;
14191;SDS011;7177;48.572;7.838;2023-09-30T11:11:15;5.87;;;3.10;;
14191;SDS011;7177;48.572;7.838;2023-09-30T11:13:41;5.33;;;3.10;;
14191;SDS011;7177;48.572;7.838;2023-09-30T11:16:06;5.30;;;3.03;;
14191;SDS011;7177;48.572;7.838;2023-09-30T11:18:33;9.87;;;2.90;;
14191;SDS011;7177;48.572;7.838;2023-09-30T11:21:03;6.73;;;3.23;;
14191;SDS011;7177;48.572;7.838;2023-09-30T11:23:36;4.97;;;2.97;;
14191;SDS011;7177;48.572;7.838;2023-09-30T11:26:02;6.83;;;3.33;;
14191;SDS011;7177;48.572;7.838;2023-09-30T11:28:36;5.67;;;2.90;;
14191;SDS011;7177;48.572;7.838;2023-09-30T11:31:10;5.47;;;2.90;;
14191;SDS011;7177;48.572;7.838;2023-09-30T11:33:48;15.10;;;3.63;;
14191;SDS011;7177;48.572;7.838;2023-09-30T11:36:17;8.27;;;3.80;;
14191;SDS011;7177;48.572;7.838;2023-09-30T11:38:45;9.07;;;3.63;;
14191;SDS011;7177;48.572;7.838;2023-09-30T11:41:12;6.73;;;3.50;;
14191;SDS011;7177;48.572;7.838;2023-09-30T11:43:38;6.63;;;3.17;;
14191;SDS011;7177;48.572;7.838;2023-09-30T11:46:08;6.23;;;3.30;;
14191;SDS011;7177;48.572;7.838;2023-09-30T11:48:39;6.90;;;3.73;;
14191;SDS011;7177;48.572;7.838;2023-09-30T11:51:21;7.20;;;3.40;;
14191;SDS011;7177;48.572;7.838;2023-09-30T11:53:49;7.03;;;3.23;;
14191;SDS011;7177;48.572;7.838;2023-09-30T11:56:15;6.47;;;3.70;;
14191;SDS011;7177;48.572;7.838;2023-09-30T11:58:42;5.57;;;3.47;;
14191;SDS011;7177;48.572;7.838;2023-09-30T12:01:08;9.13;;;3.47;;
14191;SDS011;7177;48.572;7.838;2023-09-30T12:03:36;5.93;;;3.73;;
14191;SDS011;7177;48.572;7.838;2023-09-30T12:06:05;9.40;;;3.73;;
14191;SDS011;7177;48.572;7.838;2023-09-30T12:08:38;7.90;;;3.83;;
14191;SDS011;7177;48.572;7.838;2023-09-30T12:11:07;9.00;;;4.47;;
14191;SDS011;7177;48.572;7.838;2023-09-30T12:13:33;5.87;;;3.77;;
14191;SDS011;7177;48.572;7.838;2023-09-30T12:15:59;6.67;;;3.50;;
14191;SDS011;7177;48.572;7.838;2023-09-30T12:18:24;9.77;;;4.00;;
14191;SDS011;7177;48.572;7.838;2023-09-30T12:20:50;8.80;;;4.20;;
14191;SDS011;7177;48.572;7.838;2023-09-30T12:23:19;8.10;;;4.57;;
14191;SDS011;7177;48.572;7.838;2023-09-30T12:25:45;7.97;;;4.90;;
14191;SDS011;7177;48.572;7.838;2023-09-30T12:28:11;9.90;;;4.47;;
14191;SDS011;7177;48.572;7.838;2023-09-30T12:30:39;6.97;;;4.17;;
14191;SDS011;7177;48.572;7.838;2023-09-30T12:33:05;7.53;;;4.30;;
14191;SDS011;7177;48.572;7.838;2023-09-30T12:35:31;10.63;;;4.67;;
14191;SDS011;7177;48.572;7.838;2023-09-30T12:37:57;8.43;;;4.30;;
14191;SDS011;7177;48.572;7.838;2023-09-30T12:40:23;10.17;;;4.63;;
14191;SDS011;7177;48.572;7.838;2023-09-30T12:42:48;9.50;;;4.33;;
14191;SDS011;7177;48.572;7.838;2023-09-30T12:45:14;9.47;;;5.10;;
14191;SDS011;7177;48.572;7.838;2023-09-30T12:47:39;9.93;;;4.87;;
14191;SDS011;7177;48.572;7.838;2023-09-30T12:50:05;9.87;;;4.87;;
14191;SDS011;7177;48.572;7.838;2023-09-30T12:52:34;10.10;;;4.73;;
14191;SDS011;7177;48.572;7.838;2023-09-30T12:55:00;10.73;;;4.53;;
14191;SDS011;7177;48.572;7.838;2023-09-30T12:57:25;12.47;;;5.03;;
14191;SDS011;7177;48.572;7.838;2023-09-30T12:59:51;11.13;;;5.40;;
14191;SDS011;7177;48.572;7.838;2023-09-30T13:02:18;10.70;;;5.33;;
14191;SDS011;7177;48.572;7.838;2023-09-30T13:04:44;7.37;;;4.63;;
14191;SDS011;7177;48.572;7.838;2023-09-30T13:07:10;9.03;;;5.27;;
14191;SDS011;7177;48.572;7.838;2023-09-30T13:09:36;10.73;;;4.93;;
14191;SDS011;7177;48.572;7.838;2023-09-30T13:12:05;6.30;;;3.87;;
14191;SDS011;7177;48.572;7.838;2023-09-30T13:14:31;19.87;;;12.83;;
14191;SDS011;7177;48.572;7.838;2023-09-30T13:16:57;12.97;;;6.77;;
14191;SDS011;7177;48.572;7.838;2023-09-30T13:19:23;8.00;;;4.23;;
14191;SDS011;7177;48.572;7.838;2023-09-30T13:21:51;7.90;;;4.57;;
14191;SDS011;7177;48.572;7.838;2023-09-30T13:24:20;8.27;;;4.47;;
14191;SDS011;7177;48.572;7.838;2023-09-30T13:26:46;12.30;;;4.30;;
14191;SDS011;7177;48.572;7.838;2023-09-30T13:29:13;8.23;;;4.70;;
14191;SDS011;7177;48.572;7.838;2023-09-30T13:31:41;9.47;;;5.20;;
14191;SDS011;7177;48.572;7.838;2023-09-30T13:34:07;8.87;;;5.00;;
14191;SDS011;7177;48.572;7.838;2023-09-30T13:36:33;8.13;;;4.63;;
14191;SDS011;7177;48.572;7.838;2023-09-30T13:38:58;10.40;;;5.20;;
14191;SDS011;7177;48.572;7.838;2023-09-30T13:41:24;9.33;;;4.60;;
14191;SDS011;7177;48.572;7.838;2023-09-30T13:43:50;8.77;;;4.60;;
14191;SDS011;7177;48.572;7.838;2023-09-30T13:46:15;7.60;;;4.33;;
14191;SDS011;7177;48.572;7.838;2023-09-30T13:48:41;7.90;;;4.50;;
14191;SDS011;7177;48.572;7.838;2023-09-30T13:51:07;7.20;;;4.50;;
14191;SDS011;7177;48.572;7.838;2023-09-30T13:53:34;7.93;;;4.73;;
14191;SDS011;7177;48.572;7.838;2023-09-30T13:56:00;7.30;;;4.17;;
14191;SDS011;7177;48.572;7.838;2023-09-30T13:58:26;7.77;;;4.20;;
14191;SDS011;7177;48.572;7.838;2023-09-30T14:00:52;9.67;;;4.77;;
14191;SDS011;7177;48.572;7.838;2023-09-30T14:03:18;8.20;;;4.70;;
14191;SDS011;7177;48.572;7.838;2023-09-30T14:05:44;8.27;;;4.77;;
14191;SDS011;7177;48.572;7.838;2023-09-30T14:08:10;7.90;;;4.70;;
14191;SDS011;7177;48.572;7.838;2023-09-30T14:10:36;8.07;;;4.50;;
14191;SDS011;7177;48.572;7.838;2023-09-30T14:13:02;7.80;;;4.60;;
14191;SDS011;7177;48.572;7.838;2023-09-30T14:15:28;8.80;;;4.40;;
14191;SDS011;7177;48.572;7.838;2023-09-30T14:17:56;7.70;;;4.47;;
14191;SDS011;7177;48.572;7.838;2023-09-30T14:20:22;8.90;;;4.10;;
14191;SDS011;7177;48.572;7.838;2023-09-30T14:22:48;7.30;;;4.53;;
14191;SDS011;7177;48.572;7.838;2023-09-30T14:25:16;7.37;;;4.67;;
14191;SDS011;7177;48.572;7.838;2023-09-30T14:27:42;8.70;;;4.37;;
14191;SDS011;7177;48.572;7.838;2023-09-30T14:30:07;8.63;;;4.47;;
14191;SDS011;7177;48.572;7.838;2023-09-30T14:32:33;9.47;;;4.80;;
14191;SDS011;7177;48.572;7.838;2023-09-30T14:34:59;8.50;;;4.90;;
14191;SDS011;7177;48.572;7.838;2023-09-30T14:37:25;8.10;;;5.03;;
14191;SDS011;7177;48.572;7.838;2023-09-30T14:39:50;7.97;;;4.67;;
14191;SDS011;7177;48.572;7.838;2023-09-30T14:42:16;7.90;;;4.73;;
14191;SDS011;7177;48.572;7.838;2023-09-30T14:44:41;8.37;;;5.07;;
14191;SDS011;7177;48.572;7.838;2023-09-30T14:47:07;7.57;;;4.77;;
14191;SDS011;7177;48.572;7.838;2023-09-30T14:49:33;8.90;;;4.73;;
14191;SDS011;7177;48.572;7.838;2023-09-30T14:51:59;9.47;;;5.23;;
14191;SDS011;7177;48.572;7.838;2023-09-30T14:54:25;8.37;;;4.47;;
14191;SDS011;7177;48.572;7.838;2023-09-30T14:56:51;9.77;;;5.00;;
14191;SDS011;7177;48.572;7.838;2023-09-30T14:59:17;9.57;;;5.07;;
14191;SDS011;7177;48.572;7.838;2023-09-30T15:01:42;9.33;;;4.73;;
14191;SDS011;7177;48.572;7.838;2023-09-30T15:04:08;9.03;;;4.70;;
14191;SDS011;7177;48.572;7.838;2023-09-30T15:06:33;8.03;;;4.60;;
14191;SDS011;7177;48.572;7.838;2023-09-30T15:08:59;8.10;;;4.73;;
14191;SDS011;7177;48.572;7.838;2023-09-30T15:11:27;8.47;;;4.70;;
14191;SDS011;7177;48.572;7.838;2023-09-30T15:13:52;10.57;;;4.60;;
14191;SDS011;7177;48.572;7.838;2023-09-30T15:16:19;7.60;;;4.33;;
14191;SDS011;7177;48.572;7.838;2023-09-30T15:18:45;6.63;;;4.20;;
14191;SDS011;7177;48.572;7.838;2023-09-30T15:21:12;10.17;;;5.63;;
14191;SDS011;7177;48.572;7.838;2023-09-30T15:23:38;9.03;;;4.67;;
14191;SDS011;7177;48.572;7.838;2023-09-30T15:26:03;8.03;;;4.30;;